createdAt,value
2019-02-16T00:01:30.549Z,2.29
2019-02-16T00:04:01.124Z,2.21
2019-02-16T00:06:31.633Z,2.20
2019-02-16T00:09:02.148Z,2.20
2019-02-16T00:11:32.811Z,2.19
2019-02-16T00:14:03.339Z,2.22
2019-02-16T00:16:33.792Z,2.22
2019-02-16T00:19:04.366Z,2.15
2019-02-16T00:21:34.984Z,2.13
2019-02-16T00:24:05.473Z,2.08
2019-02-16T00:26:35.890Z,2.03
2019-02-16T00:29:06.504Z,1.99
2019-02-16T00:31:36.812Z,1.91
2019-02-16T00:34:07.171Z,2.22
2019-02-16T00:36:37.695Z,3.05
2019-02-16T00:39:08.176Z,2.63
2019-02-16T00:41:39.214Z,2.54
2019-02-16T00:44:09.781Z,2.63
2019-02-16T00:46:40.231Z,2.75
2019-02-16T00:49:10.812Z,2.51
2019-02-16T00:51:41.331Z,2.27
2019-02-16T00:54:11.859Z,2.13
2019-02-16T00:56:42.500Z,1.96
2019-02-16T00:59:13.201Z,1.89
2019-02-16T01:01:43.733Z,1.80
2019-02-16T01:04:14.150Z,1.77
2019-02-16T01:06:44.738Z,1.71
2019-02-16T01:09:15.322Z,1.65
2019-02-16T01:11:45.770Z,1.60
2019-02-16T01:14:16.351Z,1.54
2019-02-16T01:16:46.850Z,1.49
2019-02-16T01:19:17.294Z,1.47
2019-02-16T01:21:48.083Z,1.52
2019-02-16T01:24:18.631Z,1.50
2019-02-16T01:26:48.944Z,1.45
2019-02-16T01:29:19.421Z,1.39
2019-02-16T01:31:49.825Z,1.31
2019-02-16T01:34:20.140Z,1.20
2019-02-16T01:36:50.615Z,1.17
2019-02-16T01:39:21.201Z,1.20
2019-02-16T01:41:51.982Z,1.31
2019-02-16T01:44:22.352Z,1.34
2019-02-16T01:46:52.822Z,1.35
2019-02-16T01:49:23.170Z,1.74
2019-02-16T01:51:53.970Z,1.56
2019-02-16T01:54:24.540Z,1.39
2019-02-16T01:56:55.050Z,1.30
2019-02-16T01:59:25.563Z,1.21
2019-02-16T02:01:55.870Z,1.06
2019-02-16T02:04:26.310Z,0.88
2019-02-16T02:06:57.301Z,0.86
2019-02-16T02:09:27.790Z,0.86
2019-02-16T02:11:58.222Z,0.83
2019-02-16T02:14:28.683Z,0.82
2019-02-16T02:16:59.119Z,0.77
2019-02-16T02:19:29.451Z,0.84
2019-02-16T02:21:59.919Z,0.83
2019-02-16T02:24:30.434Z,0.92
2019-02-16T02:27:00.900Z,0.98
2019-02-16T02:29:31.760Z,0.94
2019-02-16T02:32:02.381Z,0.94
2019-02-16T02:34:32.931Z,0.90
2019-02-16T02:37:03.413Z,0.88
2019-02-16T02:39:33.840Z,0.92
2019-02-16T02:42:04.375Z,0.93
2019-02-16T02:44:34.722Z,0.96
2019-02-16T02:47:05.135Z,0.85
2019-02-16T02:49:35.551Z,0.87
2019-02-16T02:52:06.046Z,0.80
2019-02-16T02:54:36.691Z,0.62
2019-02-16T02:57:07.145Z,0.53
2019-02-16T02:59:37.569Z,0.56
2019-02-16T03:02:08.349Z,0.53
2019-02-16T03:04:38.845Z,0.77
2019-02-16T03:07:09.276Z,0.89
2019-02-16T03:09:39.705Z,0.87
2019-02-16T03:12:10.075Z,0.86
2019-02-16T03:14:40.570Z,0.85
2019-02-16T03:17:11.191Z,0.87
2019-02-16T03:19:41.749Z,0.85
2019-02-16T03:22:12.213Z,0.68
2019-02-16T03:24:43.264Z,0.66
2019-02-16T03:28:11.107Z,0.47
2019-02-16T03:31:39.020Z,0.29
2019-02-16T03:34:19.695Z,0.18
2019-02-16T03:37:35.850Z,0.29
2019-02-16T03:40:25.587Z,0.34
2019-02-16T03:42:56.359Z,0.41
2019-02-16T03:45:26.886Z,0.40
2019-02-16T03:47:57.465Z,0.40
2019-02-16T03:50:27.865Z,0.34
2019-02-16T03:52:58.203Z,0.21
2019-02-16T03:55:28.579Z,0.09
2019-02-16T03:57:59.194Z,0.11
2019-02-16T04:00:29.637Z,0.17
2019-02-16T04:03:00.474Z,0.26
2019-02-16T04:05:30.971Z,0.30
2019-02-16T04:08:01.420Z,0.33
2019-02-16T04:10:31.850Z,0.37
2019-02-16T04:13:02.191Z,0.30
2019-02-16T04:15:32.677Z,0.31
2019-02-16T04:18:03.233Z,0.33
2019-02-16T04:20:33.646Z,0.39
2019-02-16T04:23:04.163Z,0.43
2019-02-16T04:25:34.740Z,0.45
2019-02-16T04:28:05.132Z,0.48
2019-02-16T04:30:35.740Z,0.41
2019-02-16T04:33:06.188Z,0.34
2019-02-16T04:35:36.716Z,0.29
2019-02-16T04:38:07.382Z,0.24
2019-02-16T04:40:37.879Z,0.33
2019-02-16T04:43:08.330Z,0.40
2019-02-16T04:45:38.720Z,0.40
2019-02-16T04:48:09.196Z,0.50
2019-02-16T04:50:39.540Z,0.50
2019-02-16T04:53:10.042Z,0.49
2019-02-16T04:55:40.770Z,0.49
2019-02-16T04:58:11.260Z,0.48
2019-02-16T05:00:41.780Z,0.47
2019-02-16T05:03:12.151Z,0.51
2019-02-16T05:05:42.648Z,0.49
2019-02-16T05:08:13.027Z,0.50
2019-02-16T05:10:43.424Z,0.44
2019-02-16T05:13:13.934Z,0.41
2019-02-16T05:15:44.437Z,0.47
2019-02-16T05:18:14.833Z,0.67
2019-02-16T05:20:45.260Z,0.73
2019-02-16T05:23:15.913Z,0.85
2019-02-16T05:25:46.370Z,1.02
2019-02-16T05:28:16.781Z,1.06
2019-02-16T05:30:47.275Z,1.06
2019-02-16T05:33:17.770Z,1.10
2019-02-16T05:35:48.143Z,1.16
2019-02-16T05:38:18.562Z,1.12
2019-02-16T05:40:49.040Z,1.11
2019-02-16T05:43:19.599Z,1.08
2019-02-16T05:45:49.921Z,1.10
2019-02-16T05:48:20.363Z,1.14
2019-02-16T05:50:50.849Z,1.20
2019-02-16T05:53:21.187Z,1.23
2019-02-16T05:55:51.732Z,1.24
2019-02-16T05:58:22.269Z,1.30
2019-02-16T06:00:52.851Z,1.30
2019-02-16T06:03:23.199Z,1.32
2019-02-16T06:05:53.769Z,1.38
2019-02-16T06:08:24.220Z,1.41
2019-02-16T06:10:54.721Z,1.51
2019-02-16T06:13:25.112Z,1.54
2019-02-16T06:15:56.139Z,1.71
2019-02-16T06:18:26.555Z,1.73
2019-02-16T06:20:57.019Z,1.76
2019-02-16T06:23:27.431Z,1.88
2019-02-16T06:25:58.021Z,2.10
2019-02-16T06:28:28.517Z,2.47
2019-02-16T06:30:59.094Z,3.02
2019-02-16T06:33:29.454Z,3.70
2019-02-16T06:36:04.545Z,4.58
2019-02-16T06:38:35.004Z,5.48
2019-02-16T06:41:05.901Z,6.49
2019-02-16T06:43:36.518Z,6.79
2019-02-16T06:46:08.494Z,6.97
2019-02-16T06:48:39.388Z,7.48
2019-02-16T06:51:10.743Z,8.10
2019-02-16T06:53:42.187Z,8.14
2019-02-16T06:56:33.120Z,7.98
2019-02-16T06:59:03.750Z,8.66
2019-02-16T07:01:34.495Z,9.65
2019-02-16T07:04:05.282Z,10.75
2019-02-16T07:06:35.901Z,10.88
2019-02-16T07:09:07.847Z,10.19
2019-02-16T07:11:39.225Z,10.75
2019-02-16T07:14:09.673Z,11.85
2019-02-16T07:16:51.975Z,12.94
2019-02-16T07:19:25.632Z,12.68
2019-02-16T07:21:56.230Z,10.01
2019-02-16T07:24:26.754Z,12.51
2019-02-16T07:26:57.566Z,13.14
2019-02-16T07:29:28.117Z,12.97
2019-02-16T07:31:58.623Z,12.74
2019-02-16T07:34:29.068Z,14.07
2019-02-16T07:36:59.547Z,14.04
2019-02-16T07:39:30.009Z,15.93
2019-02-16T07:42:00.575Z,16.74
2019-02-16T07:44:37.036Z,15.54
2019-02-16T07:47:26.382Z,15.24
2019-02-16T07:50:15.695Z,16.65
2019-02-16T07:52:56.485Z,17.71
2019-02-16T07:55:34.145Z,17.73
2019-02-16T07:58:12.692Z,17.83
2019-02-16T08:01:00.350Z,18.01
2019-02-16T08:03:49.639Z,17.46
2019-02-16T08:06:35.434Z,13.90
2019-02-16T08:09:14.674Z,17.49
2019-02-16T08:11:52.029Z,15.14
2019-02-16T08:14:36.690Z,16.67
2019-02-16T08:17:26.069Z,18.85
2019-02-16T08:20:07.454Z,19.20
2019-02-16T08:22:43.974Z,20.05
2019-02-16T08:25:33.450Z,20.35
2019-02-16T08:28:13.515Z,19.90
2019-02-16T08:30:52.109Z,19.84
2019-02-16T08:33:36.666Z,20.06
2019-02-16T08:36:26.412Z,20.97
2019-02-16T08:39:10.794Z,19.18
2019-02-16T08:41:57.518Z,19.55
2019-02-16T08:44:46.820Z,19.30
2019-02-16T08:47:30.646Z,20.02
2019-02-16T08:50:19.942Z,21.49
2019-02-16T08:53:09.820Z,20.25
2019-02-16T08:55:52.963Z,19.81
2019-02-16T08:58:36.983Z,20.67
2019-02-16T09:01:27.552Z,20.17
2019-02-16T09:04:17.120Z,18.44
2019-02-16T09:06:53.500Z,19.16
2019-02-16T09:09:39.665Z,20.89
2019-02-16T09:12:29.112Z,21.78
2019-02-16T09:15:07.142Z,21.83
2019-02-16T09:17:56.750Z,21.65
2019-02-16T09:20:46.180Z,20.48
2019-02-16T09:23:35.420Z,19.93
2019-02-16T09:26:24.820Z,18.88
2019-02-16T09:29:03.110Z,20.27
2019-02-16T09:31:44.219Z,22.57
2019-02-16T09:34:33.559Z,21.95
2019-02-16T09:37:11.285Z,21.46
2019-02-16T09:40:00.171Z,22.09
2019-02-16T09:42:43.470Z,23.63
2019-02-16T09:45:31.410Z,21.86
2019-02-16T09:48:11.186Z,22.41
2019-02-16T09:53:34.151Z,22.71
2019-02-16T09:56:19.709Z,22.77
2019-02-16T09:59:09.046Z,23.76
2019-02-16T10:01:45.009Z,22.78
2019-02-16T10:04:34.394Z,21.72
2019-02-16T10:07:23.949Z,21.82
2019-02-16T10:10:13.265Z,22.54
2019-02-16T10:12:52.791Z,22.53
2019-02-16T10:15:42.141Z,23.20
2019-02-16T10:18:31.523Z,23.38
2019-02-16T10:21:21.010Z,22.68
2019-02-16T10:24:17.532Z,23.44
2019-02-16T10:27:01.749Z,22.94
2019-02-16T10:29:51.595Z,22.44
2019-02-16T10:32:38.690Z,24.07
2019-02-16T10:35:21.971Z,22.94
2019-02-16T10:38:03.061Z,23.99
2019-02-16T10:40:52.251Z,24.68
2019-02-16T10:43:41.711Z,23.86
2019-02-16T10:46:31.299Z,24.11
2019-02-16T10:49:20.720Z,22.76
2019-02-16T10:52:06.580Z,22.70
2019-02-16T10:54:56.055Z,23.05
2019-02-16T10:57:45.437Z,24.04
2019-02-16T11:00:28.253Z,24.19
2019-02-16T11:03:09.409Z,23.94
2019-02-16T11:05:59.284Z,23.87
2019-02-16T11:08:45.020Z,23.13
2019-02-16T11:11:25.024Z,23.99
2019-02-16T11:14:11.121Z,23.77
2019-02-16T11:17:00.473Z,24.08
2019-02-16T11:19:43.391Z,24.54
2019-02-16T11:22:29.781Z,24.40
2019-02-16T11:25:08.522Z,24.50
2019-02-16T11:27:47.011Z,23.94
2019-02-16T11:30:36.511Z,21.95
2019-02-16T11:33:21.878Z,22.23
2019-02-16T11:36:11.644Z,21.84
2019-02-16T11:39:00.855Z,22.28
2019-02-16T11:41:39.235Z,22.91
2019-02-16T11:44:22.928Z,24.86
2019-02-16T11:47:12.205Z,22.91
2019-02-16T11:50:01.534Z,22.21
2019-02-16T11:52:50.887Z,21.24
2019-02-16T11:55:28.403Z,23.08
2019-02-16T11:58:16.641Z,22.14
2019-02-16T12:00:55.524Z,23.38
2019-02-16T12:03:38.915Z,23.50
2019-02-16T12:06:20.991Z,23.98
2019-02-16T12:09:10.275Z,22.67
2019-02-16T12:11:50.752Z,23.43
2019-02-16T12:14:38.440Z,23.38
2019-02-16T12:17:27.200Z,20.53
2019-02-16T12:20:13.259Z,22.36
2019-02-16T12:22:57.660Z,22.04
2019-02-16T12:25:47.122Z,20.35
2019-02-16T12:28:23.481Z,20.77
2019-02-16T12:31:13.012Z,18.65
2019-02-16T12:34:02.312Z,17.66
2019-02-16T12:36:47.951Z,18.04
2019-02-16T12:39:30.022Z,16.99
2019-02-16T12:42:19.351Z,17.45
2019-02-16T12:45:02.481Z,17.58
2019-02-16T12:47:51.835Z,17.37
2019-02-16T12:50:39.773Z,16.77
2019-02-16T12:53:24.778Z,16.98
2019-02-16T12:56:14.121Z,17.41
2019-02-16T12:59:03.448Z,16.76
2019-02-16T13:01:53.123Z,16.99
2019-02-16T13:04:34.184Z,16.91
2019-02-16T13:07:14.922Z,16.71
2019-02-16T13:09:58.246Z,16.34
2019-02-16T13:12:35.513Z,16.38
2019-02-16T13:15:25.649Z,16.49
2019-02-16T13:18:14.843Z,16.38
2019-02-16T13:20:57.848Z,16.04
2019-02-16T13:23:42.173Z,15.48
2019-02-16T13:26:23.995Z,15.34
2019-02-16T13:29:13.736Z,15.54
2019-02-16T13:31:56.611Z,15.64
2019-02-16T13:34:33.894Z,15.48
2019-02-16T13:37:14.741Z,15.41
2019-02-16T13:40:04.075Z,15.40
2019-02-16T13:42:46.432Z,15.35
2019-02-16T13:45:35.842Z,15.33
2019-02-16T13:48:19.965Z,15.23
2019-02-16T13:50:56.785Z,15.56
2019-02-16T13:53:46.243Z,15.84
2019-02-16T13:56:23.490Z,15.92
2019-02-16T13:59:08.911Z,16.03
2019-02-16T14:01:58.734Z,15.96
2019-02-16T14:04:48.032Z,15.95
2019-02-16T14:07:32.952Z,15.91
2019-02-16T14:10:22.240Z,15.88
2019-02-16T14:13:09.820Z,15.65
2019-02-16T14:15:59.134Z,15.63
2019-02-16T14:18:29.622Z,15.67
2019-02-16T14:21:00.219Z,15.59
2019-02-16T14:23:31.027Z,15.59
2019-02-16T14:26:01.532Z,15.52
2019-02-16T14:28:32.041Z,15.50
2019-02-16T14:31:02.561Z,15.16
2019-02-16T14:33:34.079Z,15.29
2019-02-16T14:36:04.782Z,15.27
2019-02-16T14:38:44.509Z,15.20
2019-02-16T14:41:14.949Z,14.91
2019-02-16T14:43:45.542Z,14.83
2019-02-16T14:46:17.001Z,14.76
2019-02-16T14:48:47.630Z,14.82
2019-02-16T14:51:18.210Z,14.77
2019-02-16T14:53:48.883Z,14.70
2019-02-16T14:56:19.341Z,14.73
2019-02-16T14:58:49.840Z,14.71
2019-02-16T15:01:20.386Z,14.83
2019-02-16T15:03:50.891Z,14.92
2019-02-16T15:06:21.471Z,14.94
2019-02-16T15:08:51.911Z,14.76
2019-02-16T15:11:22.402Z,14.69
2019-02-16T15:13:52.932Z,14.85
2019-02-16T15:16:23.540Z,14.68
2019-02-16T15:18:53.942Z,14.64
2019-02-16T15:21:24.323Z,14.47
2019-02-16T15:23:54.703Z,14.24
2019-02-16T15:26:28.574Z,14.26
2019-02-16T15:28:57.681Z,14.26
2019-02-16T15:31:28.230Z,14.15
2019-02-16T15:33:58.721Z,14.12
2019-02-16T15:36:29.244Z,14.04
2019-02-16T15:38:59.760Z,13.98
2019-02-16T15:41:30.424Z,13.86
2019-02-16T15:44:01.010Z,13.76
2019-02-16T15:46:31.439Z,13.62
2019-02-16T15:49:02.770Z,13.54
2019-02-16T15:51:33.327Z,13.34
2019-02-16T15:54:03.691Z,13.16
2019-02-16T15:56:34.266Z,13.00
2019-02-16T15:59:04.860Z,12.91
2019-02-16T16:01:35.514Z,12.75
2019-02-16T16:04:06.091Z,12.57
2019-02-16T16:06:36.636Z,12.44
2019-02-16T16:09:26.590Z,12.26
2019-02-16T16:12:07.641Z,12.11
2019-02-16T16:14:53.992Z,11.87
2019-02-16T16:17:32.570Z,11.66
2019-02-16T16:20:22.046Z,11.48
2019-02-16T16:23:11.330Z,11.39
2019-02-16T16:26:00.772Z,11.34
2019-02-16T16:28:50.171Z,11.30
2019-02-16T16:31:26.261Z,11.16
2019-02-16T16:34:15.670Z,11.06
2019-02-16T16:37:00.641Z,10.94
2019-02-16T16:39:40.525Z,10.80
2019-02-16T16:42:29.963Z,10.69
2019-02-16T16:45:10.546Z,10.49
2019-02-16T16:48:02.121Z,10.26
2019-02-16T16:50:51.482Z,10.10
2019-02-16T16:53:51.474Z,9.85
2019-02-16T16:56:31.195Z,9.84
2019-02-16T16:59:20.583Z,9.81
2019-02-16T17:02:10.529Z,9.75
2019-02-16T17:05:00.293Z,9.65
2019-02-16T17:07:49.839Z,9.55
2019-02-16T17:10:39.619Z,9.70
2019-02-16T17:13:29.065Z,9.72
2019-02-16T17:16:10.770Z,9.82
2019-02-16T17:19:00.160Z,10.03
2019-02-16T17:21:46.489Z,10.09
2019-02-16T17:24:36.547Z,9.93
2019-02-16T17:27:16.365Z,9.81
2019-02-16T17:29:55.811Z,9.74
2019-02-16T17:32:45.397Z,9.60
2019-02-16T17:35:25.795Z,9.56
2019-02-16T17:38:05.222Z,9.49
2019-02-16T17:40:53.934Z,9.42
2019-02-16T17:43:41.683Z,9.62
2019-02-16T17:46:22.626Z,9.63
2019-02-16T17:49:11.981Z,9.67
2019-02-16T17:51:55.868Z,9.88
2019-02-16T17:54:40.670Z,9.75
2019-02-16T17:57:30.401Z,9.75
2019-02-16T18:00:23.433Z,9.64
2019-02-16T18:03:13.984Z,9.42
2019-02-16T18:05:56.227Z,9.16
2019-02-16T18:08:47.786Z,8.99
2019-02-16T18:11:27.229Z,8.83
2019-02-16T18:14:17.821Z,8.63
2019-02-16T18:16:57.834Z,8.50
2019-02-16T18:19:41.081Z,8.34
2019-02-16T18:22:31.474Z,8.18
2019-02-16T18:25:20.850Z,8.10
2019-02-16T18:28:07.481Z,7.92
2019-02-16T18:30:58.004Z,7.82
2019-02-16T18:33:40.605Z,7.70
2019-02-16T18:36:26.057Z,7.53
2019-02-16T18:39:15.052Z,7.43
2019-02-16T18:41:57.549Z,7.32
2019-02-16T18:44:41.801Z,7.24
2019-02-16T18:47:32.626Z,7.15
2019-02-16T18:50:25.273Z,7.12
2019-02-16T18:53:16.126Z,7.09
2019-02-16T18:55:52.480Z,7.02
2019-02-16T18:58:50.526Z,6.93
2019-02-16T19:01:38.993Z,6.86
2019-02-16T19:04:28.365Z,6.73
2019-02-16T19:07:04.092Z,6.64
2019-02-16T19:09:54.982Z,6.67
2019-02-16T19:12:44.459Z,6.63
2019-02-16T19:15:35.116Z,6.47
2019-02-16T19:18:18.168Z,6.42
2019-02-16T19:21:11.999Z,6.37
2019-02-16T19:24:01.454Z,6.18
2019-02-16T19:26:52.601Z,6.18
2019-02-16T19:29:42.424Z,6.22
2019-02-16T19:32:32.803Z,6.20
2019-02-16T19:35:22.291Z,6.15
2019-02-16T19:38:16.895Z,6.18
2019-02-16T19:40:53.298Z,6.20
2019-02-16T19:43:47.265Z,6.11
2019-02-16T19:46:36.792Z,6.05
2019-02-16T19:49:26.301Z,6.02
2019-02-16T19:52:16.776Z,5.93
2019-02-16T19:55:00.705Z,5.83
2019-02-16T19:57:47.117Z,5.74
2019-02-16T20:00:33.389Z,5.71
2019-02-16T20:03:18.448Z,5.59
2019-02-16T20:06:07.948Z,5.50
2019-02-16T20:08:59.558Z,5.44
2019-02-16T20:11:46.331Z,5.35
2019-02-16T20:14:36.248Z,5.33
2019-02-16T20:17:30.911Z,5.40
2019-02-16T20:20:10.763Z,5.54
2019-02-16T20:23:03.163Z,5.63
2019-02-16T20:25:54.660Z,5.69
2019-02-16T20:28:47.560Z,5.59
2019-02-16T20:31:46.385Z,5.47
2019-02-16T20:34:30.677Z,5.55
2019-02-16T20:37:15.933Z,5.52
2019-02-16T20:40:09.701Z,5.37
2019-02-16T20:42:51.711Z,5.34
2019-02-16T20:45:29.751Z,5.35
2019-02-16T20:48:23.036Z,5.29
2019-02-16T20:51:02.063Z,5.28
2019-02-16T20:53:55.195Z,5.30
2019-02-16T20:56:48.016Z,5.33
2019-02-16T20:59:37.547Z,5.32
2019-02-16T21:02:29.945Z,5.35
2019-02-16T21:05:20.717Z,5.31
2019-02-16T21:08:10.424Z,5.26
2019-02-16T21:11:04.462Z,5.24
2019-02-16T21:13:43.535Z,5.24
2019-02-16T21:16:33.047Z,5.21
2019-02-16T21:19:22.371Z,5.22
2019-02-16T21:22:08.893Z,5.25
2019-02-16T21:25:00.575Z,5.20
2019-02-16T21:27:42.153Z,5.11
2019-02-16T21:30:35.903Z,5.02
2019-02-16T21:33:18.373Z,4.95
2019-02-16T21:36:07.757Z,4.90
2019-02-16T21:39:03.246Z,4.90
2019-02-16T21:41:48.321Z,4.91
2019-02-16T21:44:23.628Z,4.89
2019-02-16T21:47:09.423Z,4.90
2019-02-16T21:49:58.901Z,5.15
2019-02-16T21:52:48.277Z,5.08
2019-02-16T21:55:38.146Z,4.89
2019-02-16T21:58:22.502Z,4.88
2019-02-16T22:01:11.940Z,4.87
2019-02-16T22:04:01.597Z,4.82
2019-02-16T22:06:51.102Z,4.87
2019-02-16T22:09:40.347Z,4.82
2019-02-16T22:12:30.020Z,4.76
2019-02-16T22:15:02.344Z,4.64
2019-02-16T22:17:33.097Z,4.54
2019-02-16T22:20:04.456Z,4.47
2019-02-16T22:22:34.886Z,4.52
2019-02-16T22:25:06.019Z,4.56
2019-02-16T22:27:37.027Z,4.60
2019-02-16T22:30:25.604Z,4.64
2019-02-16T22:32:56.790Z,4.63
2019-02-16T22:35:29.609Z,4.70
2019-02-16T22:38:00.763Z,4.71
2019-02-16T22:40:53.016Z,4.66
2019-02-16T22:43:53.713Z,4.61
2019-02-16T22:47:13.809Z,4.59
2019-02-16T22:50:02.490Z,4.52
2019-02-16T22:52:48.531Z,4.52
2019-02-16T22:55:55.402Z,4.53
2019-02-16T22:59:09.205Z,4.51
2019-02-16T23:02:14.933Z,4.49
2019-02-16T23:04:46.220Z,4.43
2019-02-16T23:07:16.755Z,4.45
2019-02-16T23:09:47.420Z,4.47
2019-02-16T23:12:18.306Z,4.49
2019-02-16T23:14:49.222Z,4.49
2019-02-16T23:17:19.822Z,4.42
2019-02-16T23:19:50.401Z,4.44
2019-02-16T23:22:21.004Z,4.44
2019-02-16T23:24:51.623Z,4.50
2019-02-16T23:27:22.258Z,4.50
2019-02-16T23:29:52.857Z,4.56
2019-02-16T23:32:23.333Z,4.55
2019-02-16T23:34:53.886Z,4.48
2019-02-16T23:37:24.406Z,4.40
2019-02-16T23:39:54.855Z,4.35
2019-02-16T23:42:25.995Z,4.50
2019-02-16T23:44:56.562Z,4.54
2019-02-16T23:47:27.021Z,4.60
2019-02-16T23:49:57.535Z,4.57
2019-02-16T23:52:27.966Z,4.51
2019-02-16T23:54:58.490Z,4.42
2019-02-16T23:57:28.990Z,4.45
2019-02-16T23:59:59.511Z,4.49
